Latest Weather Observations for Marion Reef

IDQ60801

Issued at 11:02 pm EST Friday 15 November 2019 (issued every 10 minutes, with the page automatically refreshed every 10 minutes)

About weather observations | Map of weather stations | Latest weather observations for QLD | Other Formats
Station Details ID: 200704 Name: MARION REEF Lat: -19.10 Lon: 152.39 Height: 2.0 m
Data from the previous 72 hours. | See also: Recent months for locations in Queensland
Date/Time
EST
Temp
°C
App
Temp
°C
Dew
Point
°C
Rel
Hum
%
Delta-T
°C
Wind Press
QNH
hPa
Press
MSL
hPa
Rain since
9am
mm
Dir  Spd
km/h
Gust
km/h
Spd
kts
Gust
kts
15/11:00pm 24.7 - - - - ENE 26 32 14 17 1015.6 1015.6 -
15/10:30pm 24.9 - - - - E 24 28 13 15 1016.0 1016.0 -
15/10:00pm 24.8 - - - - E 22 28 12 15 1015.9 1015.9 -
15/09:30pm 24.7 - - - - E 22 28 12 15 1015.8 1015.8 -
15/09:00pm 24.8 - - - - E 22 26 12 14 1015.6 1015.6 -
15/08:30pm 24.8 - - - - ESE 22 26 12 14 1015.3 1015.3 -
15/08:00pm 24.7 - - - - ESE 22 26 12 14 1015.2 1015.2 -
15/07:30pm 24.8 - - - - ESE 22 26 12 14 1014.9 1014.9 -
15/07:00pm 24.8 - - - - ESE 22 24 12 13 1014.6 1014.6 -
15/06:30pm 25.1 - - - - ESE 22 26 12 14 1014.2 1014.2 -
15/06:00pm 24.9 - - - - ESE 22 26 12 14 1013.9 1013.9 -
15/05:30pm 25.0 - - - - ESE 22 26 12 14 1013.7 1013.7 -
15/05:00pm 25.1 - - - - ESE 22 26 12 14 1013.4 1013.4 -
15/04:30pm 25.1 - - - - ESE 22 28 12 15 1013.3 1013.3 -
15/04:00pm 25.2 - - - - ESE 22 26 12 14 1013.2 1013.2 -
15/03:30pm 25.1 - - - - ESE 22 26 12 14 1013.2 1013.2 -
15/03:00pm 25.2 - - - - ESE 24 28 13 15 1013.1 1013.1 -
15/02:30pm 25.1 - - - - ESE 24 28 13 15 1013.2 1013.2 -
15/02:00pm 25.3 - - - - ESE 24 28 13 15 1013.2 1013.2 -
15/01:30pm 25.4 - - - - ESE 24 28 13 15 1013.3 1013.3 -
15/01:00pm 25.3 - - - - ESE 24 28 13 15 1013.6 1013.6 -
15/12:30pm 25.3 - - - - ESE 24 26 13 14 1013.8 1013.8 -
15/12:00pm 25.2 - - - - ESE 24 28 13 15 1014.1 1014.1 -
15/11:30am 25.5 - - - - ESE 24 30 13 16 1014.2 1014.2 -
15/11:00am 25.2 - - - - ESE 24 30 13 16 1014.5 1014.5 -
15/10:30am 25.2 - - - - E 24 28 13 15 1014.8 1014.8 -
15/10:00am 25.2 - - - - ESE 22 26 12 14 1014.9 1014.9 -
15/09:30am 25.2 - - - - ESE 22 26 12 14 1014.8 1014.8 -
15/09:00am 25.0 - - - - ESE 20 26 11 14 1014.8 1014.8 -
15/08:30am 25.0 - - - - ESE 22 26 12 14 1014.7 1014.7 -
15/08:00am 25.5 - - - - ESE 22 26 12 14 1014.3 1014.3 -
15/07:30am 25.2 - - - - ESE 22 26 12 14 1014.3 1014.3 -
15/07:00am 25.0 - - - - ESE 22 28 12 15 1014.0 1014.0 -
15/06:30am 24.9 - - - - E 24 28 13 15 1013.7 1013.7 -
15/06:00am 24.9 - - - - ESE 26 32 14 17 1013.4 1013.4 -
15/05:30am 24.7 - - - - E 28 33 15 18 1012.8 1012.8 -
15/05:00am 24.9 - - - - E 30 33 16 18 1012.4 1012.4 -
15/04:30am 24.8 - - - - E 28 33 15 18 1012.0 1012.0 -
15/04:00am 24.7 - - - - E 28 32 15 17 1012.0 1012.0 -
15/03:30am 24.9 - - - - ESE 24 30 13 16 1012.1 1012.1 -
15/03:00am 24.7 - - - - E 24 30 13 16 1012.0 1012.0 -
15/02:30am 24.7 - - - - E 26 30 14 16 1011.9 1011.9 -
15/02:00am 24.7 - - - - E 26 30 14 16 1012.0 1012.0 -
15/01:30am 24.8 - - - - E 28 32 15 17 1012.3 1012.3 -
15/01:00am 25.1 - - - - E 24 30 13 16 1012.6 1012.6 -
15/12:30am 24.9 - - - - E 24 28 13 15 1012.7 1012.7 -
15/12:00am 25.0 - - - - E 24 30 13 16 1013.2 1013.2 -
 
Date/Time
EST
Temp
°C
App
Temp
°C
Dew
Point
°C
Rel
Hum
%
Delta-T
°C
Wind Press
QNH
hPa
Press
MSL
hPa
Rain since
9am
mm
Dir  Spd
km/h
Gust
km/h
Spd
kts
Gust
kts
14/11:30pm 25.0 - - - - E 24 28 13 15 1013.6 1013.6 -
14/11:00pm 25.1 - - - - ESE 22 28 12 15 1014.2 1014.2 -
14/10:30pm 25.2 - - - - ESE 24 28 13 15 1014.4 1014.4 -
14/10:00pm 25.0 - - - - E 26 30 14 16 1014.5 1014.5 -
14/09:30pm 25.4 - - - - ESE 24 28 13 15 1014.4 1014.4 -
14/09:00pm 25.3 - - - - ESE 22 28 12 15 1014.3 1014.3 -
14/08:30pm 25.4 - - - - ESE 22 26 12 14 1014.3 1014.3 -
14/08:00pm 25.3 - - - - ESE 22 26 12 14 1014.1 1014.1 -
14/07:30pm 25.3 - - - - ESE 22 28 12 15 1013.7 1013.7 -
14/07:00pm 25.3 - - - - ESE 20 26 11 14 1013.4 1013.4 -
14/06:30pm 25.2 - - - - ESE 20 24 11 13 1013.3 1013.3 -
14/06:00pm 25.4 - - - - SE 20 22 11 12 1012.8 1012.8 -
14/05:30pm 25.5 - - - - SE 19 22 10 12 1012.6 1012.6 -
14/05:00pm 25.4 - - - - ESE 19 20 10 11 1012.4 1012.4 -
14/04:30pm 25.3 - - - - ESE 19 20 10 11 1012.3 1012.3 -
14/04:00pm 25.4 - - - - ESE 17 20 9 11 1012.4 1012.4 -
14/03:30pm 25.4 - - - - SE 17 20 9 11 1012.4 1012.4 -
14/03:00pm 25.4 - - - - ESE 17 20 9 11 1012.5 1012.5 -
14/02:30pm 25.4 - - - - SE 17 20 9 11 1012.5 1012.5 -
14/02:00pm 25.5 - - - - ESE 17 20 9 11 1012.8 1012.8 -
14/01:30pm 25.6 - - - - ESE 15 17 8 9 1013.2 1013.2 -
14/01:00pm 25.7 - - - - E 13 17 7 9 1013.3 1013.3 -
14/12:30pm 25.8 - - - - ESE 13 17 7 9 1013.7 1013.7 -
14/12:00pm 25.6 - - - - ESE 13 15 7 8 1014.2 1014.2 -
14/11:30am 26.0 - - - - ESE 11 15 6 8 1014.4 1014.4 -
14/11:00am 25.8 - - - - SE 9 13 5 7 1014.6 1014.6 -
14/10:30am 25.9 - - - - SSE 9 13 5 7 1015.1 1015.1 -
14/10:00am 25.8 - - - - SSE 9 13 5 7 1015.2 1015.2 -
14/09:30am 26.6 - - - - ESE 9 13 5 7 1015.1 1015.1 -
14/09:00am 26.3 - - - - E 11 15 6 8 1015.1 1015.1 -
14/08:30am 26.2 - - - - ENE 15 19 8 10 1014.7 1014.7 -
14/08:00am 26.3 - - - - NE 17 20 9 11 1014.5 1014.5 -
14/07:30am 26.4 - - - - NE 15 17 8 9 1014.2 1014.2 -
14/07:00am 25.8 - - - - NE 15 19 8 10 1014.1 1014.1 -
14/06:30am 25.7 - - - - NE 17 20 9 11 1014.0 1014.0 -
14/06:00am 25.2 - - - - NE 19 20 10 11 1013.6 1013.6 -
14/05:30am 24.4 - - - - N 2 11 1 6 1013.0 1013.0 -
14/05:00am 24.6 - - - - N 7 11 4 6 1012.6 1012.6 -
14/04:30am 24.7 - - - - N 4 13 2 7 1012.3 1012.3 -
14/04:00am 24.5 - - - - CALM 0 7 0 4 1012.2 1012.2 -
14/03:30am 24.5 - - - - NNE 6 9 3 5 1012.3 1012.3 -
14/03:00am 24.5 - - - - CALM 0 7 0 4 1012.3 1012.3 -
14/02:30am 24.9 - - - - CALM 0 4 0 2 1012.3 1012.3 -
14/02:00am 24.6 - - - - CALM 0 7 0 4 1012.2 1012.2 -
14/01:30am 24.7 - - - - CALM 0 7 0 4 1012.5 1012.5 -
14/01:00am 24.6 - - - - N 2 6 1 3 1012.9 1012.9 -
14/12:30am 25.0 - - - - CALM 0 4 0 2 1013.2 1013.2 -
14/12:00am 24.7 - - - - CALM 0 6 0 3 1013.4 1013.4 -
 
Date/Time
EST
Temp
°C
App
Temp
°C
Dew
Point
°C
Rel
Hum
%
Delta-T
°C
Wind Press
QNH
hPa
Press
MSL
hPa
Rain since
9am
mm
Dir  Spd
km/h
Gust
km/h
Spd
kts
Gust
kts
13/11:30pm 25.0 - - - - CALM 0 4 0 2 1013.6 1013.6 -
13/11:00pm 24.9 - - - - CALM 0 4 0 2 1014.0 1014.0 -
13/10:30pm 25.0 - - - - CALM 0 4 0 2 1014.3 1014.3 -
13/10:00pm 24.9 - - - - CALM 0 4 0 2 1014.6 1014.6 -
13/09:30pm 25.1 - - - - CALM 0 4 0 2 1014.5 1014.5 -
13/09:00pm 25.1 - - - - CALM 0 7 0 4 1014.2 1014.2 -
13/08:30pm 25.1 - - - - CALM 0 4 0 2 1014.2 1014.2 -
13/08:00pm 25.2 - - - - CALM 0 4 0 2 1014.0 1014.0 -
13/07:30pm 25.2 - - - - CALM 0 7 0 4 1013.8 1013.8 -
13/07:00pm 25.3 - - - - NNE 4 9 2 5 1013.7 1013.7 -
13/06:30pm 25.5 - - - - ESE 9 11 5 6 1013.5 1013.5 -
13/06:00pm 25.5 - - - - ESE 9 13 5 7 1013.1 1013.1 -
13/05:30pm 25.9 - - - - SE 9 11 5 6 1012.8 1012.8 -
13/05:00pm 26.0 - - - - SE 9 13 5 7 1012.6 1012.6 -
13/04:30pm 26.7 - - - - ENE 11 13 6 7 1012.5 1012.5 -
13/04:00pm 27.4 - - - - NE 11 13 6 7 1012.2 1012.2 -
13/03:30pm 27.6 - - - - NE 11 13 6 7 1012.4 1012.4 -
13/03:00pm 27.4 - - - - NE 11 13 6 7 1012.5 1012.5 -
13/02:30pm 26.8 - - - - NE 11 13 6 7 1012.6 1012.6 -
13/02:00pm 26.6 - - - - NE 13 15 7 8 1012.9 1012.9 -
13/01:30pm 26.4 - - - - ENE 13 17 7 9 1013.1 1013.1 -
13/01:00pm 26.9 - - - - ENE 13 17 7 9 1013.3 1013.3 -
13/12:30pm 27.2 - - - - NE 17 20 9 11 1013.6 1013.6 -
13/12:00pm 26.8 - - - - NE 17 19 9 10 1014.0 1014.0 -
13/11:30am 26.1 - - - - ENE 15 17 8 9 1014.1 1014.1 -
13/11:00am 25.7 - - - - E 15 17 8 9 1014.5 1014.5 -
13/10:30am 25.5 - - - - E 13 15 7 8 1015.0 1015.0 -
13/10:00am 25.7 - - - - E 13 17 7 9 1015.2 1015.2 -
13/09:30am 25.6 - - - - E 13 15 7 8 1015.5 1015.5 -
13/09:00am 25.9 - - - - ENE 17 19 9 10 1015.6 1015.6 -
13/08:30am 25.8 - - - - ENE 15 17 8 9 1015.4 1015.4 -
13/08:00am 25.9 - - - - NE 15 19 8 10 1015.5 1015.5 -
13/07:30am 25.8 - - - - ENE 15 17 8 9 1015.3 1015.3 -
13/07:00am 25.6 - - - - NE 15 19 8 10 1015.1 1015.1 -
13/06:30am 25.3 - - - - ENE 15 19 8 10 1014.9 1014.9 -
13/06:00am 25.0 - - - - ENE 15 19 8 10 1014.6 1014.6 -
13/05:30am 24.7 - - - - ENE 15 17 8 9 1014.3 1014.3 -
13/05:00am 24.7 - - - - E 13 15 7 8 1014.3 1014.3 -
13/04:30am 24.8 - - - - ENE 13 17 7 9 1014.2 1014.2 -
13/04:00am 24.6 - - - - E 13 17 7 9 1014.1 1014.1 -
13/03:30am 24.6 - - - - ENE 15 17 8 9 1014.1 1014.1 -
13/03:00am 24.7 - - - - ENE 17 19 9 10 1014.2 1014.2 -
13/02:30am 24.7 - - - - ENE 15 17 8 9 1014.4 1014.4 -
13/02:00am 24.8 - - - - ENE 19 20 10 11 1014.7 1014.7 -
13/01:30am 24.9 - - - - ENE 20 24 11 13 1014.8 1014.8 -
13/01:00am 25.1 - - - - ENE 20 22 11 12 1015.2 1015.2 -
13/12:30am 24.9 - - - - NE 20 24 11 13 1015.6 1015.6 -
13/12:00am 24.7 - - - - NE 22 26 12 14 1016.0 1016.0 -
 
Date/Time
EST
Temp
°C
App
Temp
°C
Dew
Point
°C
Rel
Hum
%
Delta-T
°C
Wind Press
QNH
hPa
Press
MSL
hPa
Rain since
9am
mm
Dir  Spd
km/h
Gust
km/h
Spd
kts
Gust
kts
12/11:30pm 25.0 - - - - ENE 22 26 12 14 1016.2 1016.2 -

Other formats

Comma delimited format used in spreadsheet applications
http://www.bom.gov.au/fwo/IDQ60801/IDQ60801.94298.axf

JavaScript Object Notation format (JSON) in row-major order
http://www.bom.gov.au/fwo/IDQ60801/IDQ60801.94298.json

Data quality

Most of these data are generated automatically and are frequently updated. Quality checks on data are not normally performed. It is possible for incorrect values to appear. Refer to information at About Latest Weather Observations and please check the disclaimer before using these data.